createdAt,value
2018-10-18T00:01:53.003Z,8.88
2018-10-18T00:04:37.941Z,9.53
2018-10-18T00:07:07.174Z,9.57
2018-10-18T00:09:35.722Z,8.77
2018-10-18T00:12:04.437Z,9.08
2018-10-18T00:14:33.116Z,8.80
2018-10-18T00:17:01.697Z,9.70
2018-10-18T00:19:30.250Z,9.57
2018-10-18T00:21:58.832Z,8.93
2018-10-18T00:24:27.360Z,9.63
2018-10-18T00:26:55.896Z,9.07
2018-10-18T00:29:24.474Z,9.67
2018-10-18T00:31:53.028Z,8.83
2018-10-18T00:34:21.593Z,8.60
2018-10-18T00:36:50.113Z,8.70
2018-10-18T00:39:18.641Z,9.33
2018-10-18T00:41:47.239Z,9.33
2018-10-18T00:44:15.846Z,9.70
2018-10-18T00:46:44.372Z,9.87
2018-10-18T00:49:13.261Z,10.43
2018-10-18T00:51:41.946Z,9.70
2018-10-18T00:54:10.620Z,9.90
2018-10-18T00:56:39.162Z,9.80
2018-10-18T00:59:07.686Z,9.67
2018-10-18T01:01:36.311Z,9.57
2018-10-18T01:04:05.144Z,9.27
2018-10-18T01:06:33.688Z,9.33
2018-10-18T01:09:02.410Z,9.40
2018-10-18T01:11:30.974Z,9.10
2018-10-18T01:13:59.586Z,9.53
2018-10-18T01:16:28.067Z,9.67
2018-10-18T01:18:56.601Z,10.30
2018-10-18T01:21:25.177Z,9.77
2018-10-18T01:23:53.726Z,10.60
2018-10-18T01:26:22.258Z,11.83
2018-10-18T01:28:50.814Z,10.77
2018-10-18T01:31:19.381Z,11.17
2018-10-18T01:33:48.221Z,10.77
2018-10-18T01:36:17.225Z,10.70
2018-10-18T01:38:45.752Z,10.73
2018-10-18T01:41:14.295Z,11.80
2018-10-18T01:43:42.817Z,11.57
2018-10-18T01:46:11.447Z,12.17
2018-10-18T01:48:39.962Z,11.90
2018-10-18T01:51:08.521Z,12.27
2018-10-18T01:53:37.095Z,11.03
2018-10-18T01:56:05.873Z,11.27
2018-10-18T01:58:34.410Z,11.20
2018-10-18T02:01:02.972Z,11.73
2018-10-18T02:03:31.543Z,11.60
2018-10-18T02:06:00.150Z,11.50
2018-10-18T02:08:28.781Z,11.50
2018-10-18T02:10:57.328Z,11.40
2018-10-18T02:13:25.891Z,11.20
2018-10-18T02:15:54.787Z,11.53
2018-10-18T02:18:23.965Z,11.70
2018-10-18T02:20:52.697Z,11.87
2018-10-18T02:23:21.473Z,11.10
2018-10-18T02:25:50.046Z,10.83
2018-10-18T02:28:18.592Z,11.20
2018-10-18T02:30:47.194Z,11.43
2018-10-18T02:33:15.740Z,10.60
2018-10-18T02:35:44.715Z,11.77
2018-10-18T02:38:13.317Z,10.73
2018-10-18T02:40:41.940Z,11.20
2018-10-18T02:43:10.530Z,11.23
2018-10-18T02:45:39.065Z,11.20
2018-10-18T02:48:07.776Z,11.33
2018-10-18T02:50:36.431Z,10.23
2018-10-18T02:53:05.242Z,10.43
2018-10-18T02:55:33.762Z,10.47
2018-10-18T02:58:04.656Z,11.60
2018-10-18T03:00:33.907Z,11.13
2018-10-18T03:03:02.463Z,11.37
2018-10-18T03:05:31.101Z,11.03
2018-10-18T03:07:59.796Z,11.60
2018-10-18T03:10:28.472Z,14.07
2018-10-18T03:12:57.146Z,11.20
2018-10-18T03:15:25.798Z,12.10
2018-10-18T03:17:54.372Z,10.97
2018-10-18T03:20:23.250Z,10.57
2018-10-18T03:22:51.796Z,10.10
2018-10-18T03:25:20.371Z,10.40
2018-10-18T03:27:48.996Z,10.17
2018-10-18T03:30:17.573Z,9.97
2018-10-18T03:32:46.069Z,10.17
2018-10-18T03:35:14.729Z,9.83
2018-10-18T03:37:43.236Z,10.83
2018-10-18T03:40:11.785Z,10.63
2018-10-18T03:42:40.396Z,11.37
2018-10-18T03:45:09.124Z,11.40
2018-10-18T03:47:37.748Z,11.63
2018-10-18T03:50:06.358Z,11.80
2018-10-18T03:52:34.921Z,12.60
2018-10-18T03:55:03.606Z,12.90
2018-10-18T03:57:32.173Z,13.47
2018-10-18T04:00:01.028Z,13.07
2018-10-18T04:02:29.709Z,13.13
2018-10-18T04:04:58.224Z,13.63
2018-10-18T04:07:26.853Z,13.87
2018-10-18T04:09:55.397Z,14.60
2018-10-18T04:12:24.089Z,15.50
2018-10-18T04:14:52.572Z,16.70
2018-10-18T04:17:21.153Z,15.70
2018-10-18T04:19:49.700Z,14.97
2018-10-18T04:22:18.287Z,13.97
2018-10-18T04:24:46.901Z,13.93
2018-10-18T04:27:16.537Z,13.90
2018-10-18T04:29:45.150Z,14.77
2018-10-18T04:32:13.781Z,14.90
2018-10-18T04:34:42.340Z,14.60
2018-10-18T04:37:11.229Z,15.10
2018-10-18T04:39:39.865Z,15.43
2018-10-18T04:42:08.490Z,15.77
2018-10-18T04:44:37.409Z,17.10
2018-10-18T04:47:06.714Z,16.37
2018-10-18T04:49:35.228Z,14.87
2018-10-18T04:52:03.908Z,13.90
2018-10-18T04:54:32.765Z,14.63
2018-10-18T04:57:01.482Z,14.33
2018-10-18T04:59:30.089Z,15.03
2018-10-18T05:01:58.641Z,15.13
2018-10-18T05:04:27.464Z,15.67
2018-10-18T05:06:56.111Z,15.80
2018-10-18T05:09:24.806Z,16.37
2018-10-18T05:11:53.521Z,15.33
2018-10-18T05:14:22.088Z,15.80
2018-10-18T05:16:50.709Z,15.23
2018-10-18T05:19:19.549Z,15.63
2018-10-18T05:21:48.203Z,13.80
2018-10-18T05:24:16.945Z,15.27
2018-10-18T05:26:45.509Z,15.37
2018-10-18T05:29:14.126Z,15.83
2018-10-18T05:31:42.768Z,16.00
2018-10-18T05:34:11.393Z,16.27
2018-10-18T05:36:39.935Z,15.17
2018-10-18T05:39:10.889Z,16.80
2018-10-18T05:41:39.841Z,19.40
2018-10-18T05:44:08.456Z,19.63
2018-10-18T05:46:37.117Z,19.77
2018-10-18T05:49:05.764Z,20.77
2018-10-18T05:51:34.298Z,21.07
2018-10-18T05:54:03.039Z,22.77
2018-10-18T05:56:31.608Z,23.40
2018-10-18T05:59:00.495Z,25.17
2018-10-18T06:01:29.189Z,27.03
2018-10-18T06:03:57.872Z,26.40
2018-10-18T06:06:26.987Z,27.20
2018-10-18T06:08:56.148Z,28.27
2018-10-18T06:11:28.304Z,27.13
2018-10-18T06:13:57.596Z,28.63
2018-10-18T06:16:29.662Z,28.23
2018-10-18T06:19:03.351Z,28.17
2018-10-18T06:21:34.762Z,28.97
2018-10-18T06:24:03.828Z,29.13
2018-10-18T06:26:33.343Z,29.97
2018-10-18T06:29:03.275Z,29.73
2018-10-18T06:31:32.626Z,29.80
2018-10-18T06:34:03.769Z,29.77
2018-10-18T06:36:40.928Z,31.57
2018-10-18T06:39:12.149Z,30.77
2018-10-18T06:41:41.667Z,29.47
2018-10-18T06:44:13.783Z,30.90
2018-10-18T06:46:43.646Z,29.10
2018-10-18T06:49:13.058Z,29.83
2018-10-18T06:51:42.793Z,29.80
2018-10-18T06:54:12.542Z,30.90
2018-10-18T06:56:41.431Z,30.70
2018-10-18T06:59:10.088Z,27.37
2018-10-18T07:01:38.844Z,29.17
2018-10-18T07:04:08.004Z,28.17
2018-10-18T07:06:38.185Z,28.87
2018-10-18T07:09:09.459Z,27.70
2018-10-18T07:11:38.174Z,26.80
2018-10-18T07:14:06.792Z,26.10
2018-10-18T07:16:35.429Z,26.13
2018-10-18T07:19:04.205Z,26.37
2018-10-18T07:21:33.105Z,25.37
2018-10-18T07:24:01.810Z,25.90
2018-10-18T07:26:30.546Z,24.33
2018-10-18T07:28:59.355Z,24.00
2018-10-18T07:31:28.402Z,22.83
2018-10-18T07:33:57.064Z,23.67
2018-10-18T07:36:26.352Z,23.83
2018-10-18T07:38:55.708Z,25.25
2018-10-18T07:41:25.869Z,25.10
2018-10-18T07:43:54.690Z,25.60
2018-10-18T07:46:23.393Z,23.70
2018-10-18T07:48:52.959Z,23.85
2018-10-18T07:51:22.080Z,23.67
2018-10-18T07:53:52.348Z,25.20
2018-10-18T07:56:21.143Z,26.07
2018-10-18T07:58:49.947Z,26.50
2018-10-18T08:01:18.837Z,27.30
2018-10-18T08:03:49.103Z,27.27
2018-10-18T08:06:18.193Z,25.97
2018-10-18T08:09:03.260Z,27.00
2018-10-18T08:11:32.457Z,30.08
2018-10-18T08:14:02.289Z,28.65
2018-10-18T08:16:31.843Z,30.27
2018-10-18T08:19:00.795Z,29.37
2018-10-18T08:21:31.020Z,30.85
2018-10-18T08:23:59.961Z,32.17
2018-10-18T08:26:28.953Z,30.62
2018-10-18T08:28:57.937Z,32.40
2018-10-18T08:31:26.888Z,31.10
2018-10-18T08:33:55.638Z,30.15
2018-10-18T08:36:24.456Z,30.50
2018-10-18T08:38:53.523Z,30.05
2018-10-18T08:41:22.753Z,30.15
2018-10-18T08:43:51.964Z,33.08
2018-10-18T08:46:20.866Z,29.77
2018-10-18T08:48:50.328Z,29.13
2018-10-18T08:51:19.009Z,31.75
2018-10-18T08:53:48.588Z,30.60
2018-10-18T08:56:17.930Z,30.57
2018-10-18T08:58:51.310Z,31.23
2018-10-18T09:01:20.342Z,29.92
2018-10-18T09:03:49.328Z,30.43
2018-10-18T09:06:18.336Z,31.57
2018-10-18T09:08:47.392Z,32.88
2018-10-18T09:11:16.348Z,32.73
2018-10-18T09:13:45.259Z,29.63
2018-10-18T09:16:14.215Z,31.07
2018-10-18T09:18:43.426Z,32.15
2018-10-18T09:21:12.873Z,33.18
2018-10-18T09:23:42.379Z,32.58
2018-10-18T09:26:12.018Z,33.20
2018-10-18T09:28:41.121Z,34.00
2018-10-18T09:31:11.554Z,33.33
2018-10-18T09:33:40.690Z,32.65
2018-10-18T09:36:09.540Z,32.78
2018-10-18T09:38:38.315Z,33.30
2018-10-18T09:41:07.240Z,31.90
2018-10-18T09:43:36.160Z,30.82
2018-10-18T09:46:06.067Z,30.97
2018-10-18T09:48:35.683Z,32.95
2018-10-18T09:51:04.717Z,31.30
2018-10-18T09:53:33.633Z,32.88
2018-10-18T09:56:04.611Z,31.30
2018-10-18T09:58:33.977Z,30.80
2018-10-18T10:01:08.891Z,29.92
2018-10-18T10:03:38.943Z,30.08
2018-10-18T10:06:07.921Z,29.15
2018-10-18T10:08:37.595Z,30.10
2018-10-18T10:11:06.355Z,29.65
2018-10-18T10:13:35.436Z,30.30
2018-10-18T10:16:04.072Z,28.47
2018-10-18T10:18:32.790Z,30.57
2018-10-18T10:21:01.570Z,27.95
2018-10-18T10:23:30.393Z,27.87
2018-10-18T10:25:59.147Z,27.27
2018-10-18T10:28:27.837Z,27.60
2018-10-18T10:30:56.564Z,26.17
2018-10-18T10:33:25.268Z,29.65
2018-10-18T10:35:54.246Z,27.32
2018-10-18T10:38:23.012Z,27.17
2018-10-18T10:40:51.717Z,26.90
2018-10-18T10:43:20.451Z,27.32
2018-10-18T10:45:49.327Z,26.73
2018-10-18T10:48:18.091Z,27.17
2018-10-18T10:50:46.825Z,29.18
2018-10-18T10:53:15.588Z,27.70
2018-10-18T10:55:44.339Z,26.42
2018-10-18T10:58:13.154Z,25.65
2018-10-18T11:01:17.925Z,26.07
2018-10-18T11:03:47.309Z,26.60
2018-10-18T11:06:16.368Z,25.30
2018-10-18T11:08:45.361Z,25.43
2018-10-18T11:11:16.301Z,25.68
2018-10-18T11:13:45.355Z,26.23
2018-10-18T11:16:14.365Z,24.65
2018-10-18T11:18:43.109Z,23.83
2018-10-18T11:21:13.486Z,23.07
2018-10-18T11:23:42.822Z,24.52
2018-10-18T11:26:13.032Z,24.23
2018-10-18T11:28:42.015Z,22.73
2018-10-18T11:31:10.789Z,25.27
2018-10-18T11:33:39.439Z,23.18
2018-10-18T11:36:08.138Z,22.35
2018-10-18T11:38:37.334Z,23.12
2018-10-18T11:41:05.918Z,22.85
2018-10-18T11:43:34.499Z,23.45
2018-10-18T11:46:03.100Z,24.00
2018-10-18T11:48:31.707Z,21.68
2018-10-18T11:51:00.269Z,20.62
2018-10-18T11:53:28.921Z,22.55
2018-10-18T11:55:57.539Z,23.57
2018-10-18T11:58:26.140Z,22.20
2018-10-18T12:00:54.749Z,21.93
2018-10-18T12:03:23.399Z,21.62
2018-10-18T12:05:52.058Z,22.25
2018-10-18T12:08:20.748Z,20.85
2018-10-18T12:10:49.499Z,21.95
2018-10-18T12:13:18.147Z,20.80
2018-10-18T12:15:46.774Z,20.77
2018-10-18T12:18:15.651Z,20.72
2018-10-18T12:20:44.275Z,20.75
2018-10-18T12:23:13.009Z,22.60
2018-10-18T12:25:41.740Z,21.62
2018-10-18T12:28:10.403Z,21.93
2018-10-18T12:30:39.628Z,21.12
2018-10-18T12:33:08.592Z,21.68
2018-10-18T12:35:38.002Z,21.02
2018-10-18T12:38:06.946Z,23.27
2018-10-18T12:40:36.407Z,22.02
2018-10-18T12:43:07.629Z,21.60
2018-10-18T12:45:36.371Z,22.32
2018-10-18T12:48:05.431Z,21.70
2018-10-18T12:50:34.265Z,22.02
2018-10-18T12:53:03.057Z,22.35
2018-10-18T12:55:32.091Z,22.37
2018-10-18T12:58:00.893Z,23.25
2018-10-18T13:00:29.819Z,22.62
2018-10-18T13:02:59.347Z,24.52
2018-10-18T13:05:28.629Z,25.30
2018-10-18T13:07:57.505Z,23.05
2018-10-18T13:10:27.103Z,22.87
2018-10-18T13:12:55.889Z,23.45
2018-10-18T13:15:25.848Z,25.35
2018-10-18T13:17:56.353Z,24.15
2018-10-18T13:20:25.932Z,25.08
2018-10-18T13:22:55.317Z,24.20
2018-10-18T13:25:24.093Z,23.30
2018-10-18T13:27:53.333Z,23.83
2018-10-18T13:30:51.913Z,24.72
2018-10-18T13:33:20.968Z,24.37
2018-10-18T13:35:49.691Z,23.90
2018-10-18T13:38:18.529Z,24.47
2018-10-18T13:40:47.430Z,24.18
2018-10-18T13:43:45.217Z,22.67
2018-10-18T13:46:16.166Z,22.77
2018-10-18T13:48:45.069Z,23.85
2018-10-18T13:51:14.099Z,23.12
2018-10-18T13:53:43.331Z,23.15
2018-10-18T13:56:15.142Z,23.07
2018-10-18T13:58:44.080Z,23.47
2018-10-18T14:01:12.956Z,23.70
2018-10-18T14:03:42.702Z,24.27
2018-10-18T14:06:11.746Z,23.80
2018-10-18T14:08:41.504Z,21.97
2018-10-18T14:11:11.499Z,23.83
2018-10-18T14:13:41.385Z,23.25
2018-10-18T14:16:15.199Z,23.38
2018-10-18T14:18:44.157Z,24.95
2018-10-18T14:21:13.204Z,25.30
2018-10-18T14:23:42.064Z,24.57
2018-10-18T14:26:14.268Z,25.80
2018-10-18T14:29:04.610Z,25.12
2018-10-18T14:31:36.103Z,23.92
2018-10-18T14:34:05.368Z,23.15
2018-10-18T14:36:34.273Z,25.12
2018-10-18T14:39:03.419Z,22.13
2018-10-18T14:41:32.423Z,23.15
2018-10-18T14:44:01.515Z,23.50
2018-10-18T14:46:30.364Z,22.73
2018-10-18T14:49:00.516Z,22.82
2018-10-18T14:51:29.604Z,23.10
2018-10-18T14:53:58.417Z,24.75
2018-10-18T14:56:27.331Z,21.97
2018-10-18T14:58:56.168Z,23.67
2018-10-18T15:01:25.288Z,23.20
2018-10-18T15:03:53.992Z,23.57
2018-10-18T15:06:22.844Z,22.35
2018-10-18T15:08:51.835Z,22.52
2018-10-18T15:11:21.185Z,23.75
2018-10-18T15:13:51.162Z,24.30
2018-10-18T15:16:20.327Z,25.50
2018-10-18T15:18:50.283Z,22.00
2018-10-18T15:21:19.500Z,23.32
2018-10-18T15:23:48.494Z,22.40
2018-10-18T15:26:17.894Z,23.10
2018-10-18T15:28:46.789Z,22.35
2018-10-18T15:31:16.088Z,23.95
2018-10-18T15:33:44.996Z,22.80
2018-10-18T15:36:19.668Z,22.85
2018-10-18T15:38:49.761Z,22.80
2018-10-18T15:41:20.101Z,22.65
2018-10-18T15:43:49.061Z,23.77
2018-10-18T15:46:18.532Z,22.58
2018-10-18T15:48:47.325Z,24.18
2018-10-18T15:51:16.547Z,23.55
2018-10-18T15:53:51.742Z,21.82
2018-10-18T15:56:21.105Z,23.70
2018-10-18T15:58:50.196Z,21.70
2018-10-18T16:01:19.411Z,21.40
2018-10-18T16:03:48.248Z,21.52
2018-10-18T16:06:17.097Z,21.93
2018-10-18T16:08:45.932Z,21.45
2018-10-18T16:11:14.834Z,21.40
2018-10-18T16:13:44.104Z,21.87
2018-10-18T16:16:13.033Z,22.40
2018-10-18T16:18:42.766Z,21.97
2018-10-18T16:21:15.057Z,20.82
2018-10-18T16:23:46.736Z,21.07
2018-10-18T16:26:16.256Z,21.15
2018-10-18T16:28:47.234Z,20.57
2018-10-18T16:31:28.572Z,21.50
2018-10-18T16:34:00.196Z,21.62
2018-10-18T16:36:30.496Z,22.07
2018-10-18T16:38:59.401Z,21.30
2018-10-18T16:41:46.248Z,21.50
2018-10-18T16:44:19.609Z,21.05
2018-10-18T16:49:28.695Z,21.30
2018-10-18T16:51:57.720Z,20.08
2018-10-18T16:54:26.576Z,19.70
2018-10-18T16:56:55.608Z,20.68
2018-10-18T16:59:29.354Z,20.45
2018-10-18T17:02:11.557Z,19.57
2018-10-18T17:04:41.558Z,19.37
2018-10-18T17:07:11.297Z,20.55
2018-10-18T17:09:42.464Z,18.60
2018-10-18T17:12:11.357Z,19.73
2018-10-18T17:14:40.384Z,19.60
2018-10-18T17:17:09.109Z,19.05
2018-10-18T17:19:38.228Z,19.32
2018-10-18T17:22:07.237Z,18.92
2018-10-18T17:24:37.154Z,19.82
2018-10-18T17:27:06.296Z,19.20
2018-10-18T17:29:35.168Z,18.70
2018-10-18T17:32:04.091Z,18.73
2018-10-18T17:34:32.884Z,18.20
2018-10-18T17:37:01.813Z,19.52
2018-10-18T17:39:30.912Z,17.40
2018-10-18T17:41:59.730Z,19.27
2018-10-18T17:44:28.741Z,20.32
2018-10-18T17:46:57.495Z,24.95
2018-10-18T17:49:26.477Z,19.32
2018-10-18T17:51:55.198Z,20.23
2018-10-18T17:54:24.230Z,19.92
2018-10-18T17:56:54.497Z,19.98
2018-10-18T17:59:24.328Z,20.17
2018-10-18T18:04:44.051Z,18.95
2018-10-18T18:08:08.885Z,19.35
2018-10-18T18:10:38.497Z,19.00
2018-10-18T18:13:07.333Z,19.30
2018-10-18T18:15:36.083Z,18.45
2018-10-18T18:18:05.093Z,19.60
2018-10-18T18:20:33.985Z,19.90
2018-10-18T18:23:02.858Z,21.37
2018-10-18T18:25:32.118Z,20.40
2018-10-18T18:28:01.004Z,20.27
2018-10-18T18:30:30.466Z,20.10
2018-10-18T18:32:59.411Z,19.05
2018-10-18T18:35:28.477Z,21.10
2018-10-18T18:37:57.297Z,19.90
2018-10-18T18:40:26.251Z,19.70
2018-10-18T18:42:54.958Z,20.30
2018-10-18T18:45:24.806Z,20.75
2018-10-18T18:47:53.532Z,19.23
2018-10-18T18:50:22.276Z,20.77
2018-10-18T18:52:51.179Z,19.93
2018-10-18T18:55:20.119Z,19.17
2018-10-18T18:57:48.936Z,20.57
2018-10-18T19:00:17.851Z,20.20
2018-10-18T19:02:46.731Z,21.07
2018-10-18T19:05:15.684Z,19.87
2018-10-18T19:07:44.469Z,19.97
2018-10-18T19:10:13.689Z,19.73
2018-10-18T19:12:42.631Z,19.87
2018-10-18T19:15:11.441Z,21.37
2018-10-18T19:17:40.653Z,19.60
2018-10-18T19:20:09.764Z,20.07
2018-10-18T19:22:39.364Z,18.98
2018-10-18T19:25:08.650Z,18.90
2018-10-18T19:27:37.757Z,19.00
2018-10-18T19:30:08.266Z,19.77
2018-10-18T19:32:37.258Z,18.15
2018-10-18T19:35:06.240Z,18.23
2018-10-18T19:37:34.954Z,20.27
2018-10-18T19:40:03.754Z,21.05
2018-10-18T19:42:33.102Z,22.45
2018-10-18T19:45:01.853Z,20.20
2018-10-18T19:47:30.798Z,20.37
2018-10-18T19:50:00.768Z,18.30
2018-10-18T19:52:30.340Z,18.30
2018-10-18T19:54:58.909Z,19.48
2018-10-18T19:57:27.705Z,19.75
2018-10-18T19:59:56.805Z,18.23
2018-10-18T20:02:25.495Z,19.63
2018-10-18T20:04:54.302Z,21.00
2018-10-18T20:07:23.148Z,19.05
2018-10-18T20:09:51.880Z,18.73
2018-10-18T20:12:20.496Z,19.43
2018-10-18T20:14:49.205Z,19.07
2018-10-18T20:17:17.891Z,18.12
2018-10-18T20:19:46.516Z,18.12
2018-10-18T20:22:15.104Z,18.40
2018-10-18T20:24:43.960Z,17.73
2018-10-18T20:27:12.513Z,17.52
2018-10-18T20:29:41.601Z,17.70
2018-10-18T20:32:10.196Z,18.27
2018-10-18T20:34:38.805Z,17.25
2018-10-18T20:37:07.482Z,15.80
2018-10-18T20:39:36.166Z,17.47
2018-10-18T20:42:04.749Z,16.37
2018-10-18T20:44:33.381Z,17.20
2018-10-18T20:47:02.120Z,15.87
2018-10-18T20:49:30.753Z,16.95
2018-10-18T20:51:59.400Z,16.87
2018-10-18T20:54:28.004Z,15.38
2018-10-18T20:56:56.717Z,15.30
2018-10-18T20:59:25.330Z,15.90
2018-10-18T21:01:53.976Z,15.33
2018-10-18T21:04:22.580Z,14.53
2018-10-18T21:06:51.288Z,15.65
2018-10-18T21:09:19.899Z,14.73
2018-10-18T21:11:48.530Z,14.23
2018-10-18T21:14:17.246Z,13.60
2018-10-18T21:16:45.929Z,12.97
2018-10-18T21:19:14.525Z,12.83
2018-10-18T21:21:43.201Z,13.33
2018-10-18T21:24:11.831Z,13.22
2018-10-18T21:26:40.435Z,12.30
2018-10-18T21:29:09.249Z,11.60
2018-10-18T21:31:37.841Z,10.93
2018-10-18T21:34:06.541Z,11.17
2018-10-18T21:36:40.709Z,11.22
2018-10-18T21:39:09.748Z,10.47
2018-10-18T21:41:38.501Z,10.20
2018-10-18T21:44:07.094Z,9.20
2018-10-18T21:46:37.632Z,9.35
2018-10-18T21:49:09.680Z,8.67
2018-10-18T21:51:39.201Z,9.10
2018-10-18T21:54:07.807Z,8.10
2018-10-18T21:56:36.426Z,7.83
2018-10-18T21:59:05.212Z,7.53
2018-10-18T22:01:33.829Z,6.90
2018-10-18T22:04:03.426Z,6.85
2018-10-18T22:06:31.997Z,6.30
2018-10-18T22:09:00.606Z,6.60
2018-10-18T22:11:29.257Z,6.57
2018-10-18T22:13:57.877Z,5.90
2018-10-18T22:16:26.509Z,6.23
2018-10-18T22:18:55.137Z,5.07
2018-10-18T22:21:23.836Z,5.67
2018-10-18T22:23:52.551Z,5.13
2018-10-18T22:26:21.217Z,5.00
2018-10-18T22:28:50.200Z,5.00
2018-10-18T22:31:18.972Z,4.37
2018-10-18T22:33:47.702Z,4.87
2018-10-18T22:36:16.618Z,4.67
2018-10-18T22:38:45.239Z,4.20
2018-10-18T22:41:13.915Z,4.57
2018-10-18T22:43:42.445Z,4.33
2018-10-18T22:46:11.101Z,4.33
2018-10-18T22:48:39.728Z,3.87
2018-10-18T22:51:08.389Z,4.20
2018-10-18T22:53:37.379Z,4.40
2018-10-18T22:56:06.159Z,4.30
2018-10-18T22:58:34.815Z,4.23
2018-10-18T23:01:03.550Z,3.40
2018-10-18T23:03:32.201Z,3.70
2018-10-18T23:06:00.841Z,3.40
2018-10-18T23:08:29.430Z,3.13
2018-10-18T23:10:58.013Z,3.60
2018-10-18T23:13:26.681Z,3.70
2018-10-18T23:15:55.567Z,3.70
2018-10-18T23:18:24.217Z,3.50
2018-10-18T23:20:52.876Z,3.80
2018-10-18T23:23:21.488Z,3.60
2018-10-18T23:25:50.112Z,3.37
2018-10-18T23:28:18.715Z,3.50
2018-10-18T23:30:47.325Z,3.53
2018-10-18T23:33:16.009Z,3.70
2018-10-18T23:35:44.618Z,3.80
2018-10-18T23:38:13.240Z,3.63
2018-10-18T23:40:41.909Z,3.70
2018-10-18T23:43:10.548Z,3.70
2018-10-18T23:45:39.215Z,4.43
2018-10-18T23:48:07.913Z,3.60
2018-10-18T23:50:36.492Z,3.50
2018-10-18T23:53:05.182Z,4.07
2018-10-18T23:55:33.792Z,3.70
2018-10-18T23:58:02.549Z,3.90
